createdAt,value
2018-04-11T00:01:13.597Z,14.77
2018-04-11T00:03:41.679Z,14.78
2018-04-11T00:06:10.395Z,14.74
2018-04-11T00:08:39.380Z,14.67
2018-04-11T00:11:07.466Z,14.69
2018-04-11T00:13:35.571Z,14.71
2018-04-11T00:16:03.685Z,14.61
2018-04-11T00:18:32.179Z,14.64
2018-04-11T00:21:00.310Z,14.65
2018-04-11T00:23:28.431Z,14.77
2018-04-11T00:25:56.511Z,14.77
2018-04-11T00:28:24.598Z,14.80
2018-04-11T00:30:52.717Z,14.77
2018-04-11T00:33:20.845Z,14.65
2018-04-11T00:35:48.915Z,14.58
2018-04-11T00:38:17.130Z,14.51
2018-04-11T00:53:45.257Z,14.64
2018-04-11T00:56:13.356Z,14.57
2018-04-11T00:58:41.447Z,14.52
2018-04-11T01:01:09.575Z,14.53
2018-04-11T01:03:37.783Z,14.41
2018-04-11T01:06:05.867Z,14.39
2018-04-11T01:08:33.960Z,14.39
2018-04-11T01:11:02.088Z,14.34
2018-04-11T01:13:30.606Z,14.40
2018-04-11T01:15:59.555Z,14.38
2018-04-11T01:18:27.651Z,14.41
2018-04-11T01:20:55.769Z,14.37
2018-04-11T01:23:24.075Z,14.40
2018-04-11T01:25:52.231Z,14.36
2018-04-11T01:28:20.331Z,14.31
2018-04-11T01:30:48.424Z,14.31
2018-04-11T01:33:16.536Z,14.38
2018-04-11T01:35:44.627Z,14.52
2018-04-11T01:38:12.780Z,14.62
2018-04-11T01:40:40.893Z,14.61
2018-04-11T01:43:08.990Z,14.63
2018-04-11T01:45:37.087Z,14.23
2018-04-11T01:48:05.399Z,14.26
2018-04-11T01:50:33.483Z,14.31
2018-04-11T01:53:01.579Z,14.43
2018-04-11T01:55:29.676Z,14.55
2018-04-11T01:57:57.777Z,14.57
2018-04-11T02:00:26.490Z,14.56
2018-04-11T02:02:55.057Z,14.45
2018-04-11T02:05:28.181Z,14.38
2018-04-11T02:07:56.287Z,14.33
2018-04-11T02:10:24.379Z,14.20
2018-04-11T02:12:52.531Z,14.18
2018-04-11T02:15:20.623Z,14.02
2018-04-11T02:17:48.788Z,14.05
2018-04-11T02:20:17.697Z,14.11
2018-04-11T02:22:45.788Z,14.07
2018-04-11T02:25:13.916Z,14.08
2018-04-11T02:27:42.028Z,14.03
2018-04-11T02:30:10.447Z,14.05
2018-04-11T02:32:38.845Z,14.04
2018-04-11T02:35:06.953Z,14.06
2018-04-11T02:37:35.095Z,14.08
2018-04-11T02:40:04.163Z,13.99
2018-04-11T02:42:32.279Z,13.96
2018-04-11T02:45:00.368Z,14.03
2018-04-11T02:47:29.333Z,14.04
2018-04-11T02:49:57.446Z,13.94
2018-04-11T02:52:25.529Z,14.04
2018-04-11T02:54:54.085Z,14.08
2018-04-11T02:57:22.187Z,14.05
2018-04-11T02:59:51.086Z,14.01
2018-04-11T03:02:19.768Z,13.92
2018-04-11T03:04:47.918Z,13.95
2018-04-11T03:07:17.565Z,13.91
2018-04-11T03:09:45.742Z,13.93
2018-04-11T03:12:13.820Z,13.84
2018-04-11T03:14:42.704Z,13.98
2018-04-11T03:17:10.796Z,14.01
2018-04-11T03:19:39.748Z,13.98
2018-04-11T03:22:08.246Z,13.96
2018-04-11T03:24:36.347Z,14.01
2018-04-11T03:27:04.459Z,13.92
2018-04-11T03:29:32.547Z,13.91
2018-04-11T03:32:00.643Z,13.86
2018-04-11T03:34:29.907Z,13.85
2018-04-11T03:36:58.011Z,13.85
2018-04-11T03:39:26.439Z,13.93
2018-04-11T03:41:54.548Z,13.84
2018-04-11T03:44:22.650Z,14.03
2018-04-11T03:46:50.751Z,13.94
2018-04-11T03:49:18.853Z,13.96
2018-04-11T03:51:46.938Z,14.01
2018-04-11T03:54:15.027Z,13.78
2018-04-11T03:56:43.132Z,13.68
2018-04-11T03:59:11.220Z,13.61
2018-04-11T04:01:39.310Z,13.55
2018-04-11T04:04:07.413Z,13.60
2018-04-11T04:06:35.856Z,13.52
2018-04-11T04:09:03.943Z,13.53
2018-04-11T04:11:32.051Z,13.45
2018-04-11T04:14:11.847Z,13.52
2018-04-11T04:16:51.863Z,13.57
2018-04-11T04:19:31.672Z,13.66
2018-04-11T04:21:59.765Z,13.73
2018-04-11T04:24:27.857Z,13.73
2018-04-11T04:26:55.967Z,13.79
2018-04-11T04:29:24.075Z,13.80
2018-04-11T04:31:52.173Z,13.71
2018-04-11T04:34:20.300Z,13.62
2018-04-11T04:36:48.982Z,13.57
2018-04-11T04:39:17.879Z,13.56
2018-04-11T04:41:46.221Z,13.66
2018-04-11T04:44:14.596Z,13.63
2018-04-11T04:46:43.619Z,13.60
2018-04-11T04:49:11.714Z,13.59
2018-04-11T04:51:39.817Z,13.48
2018-04-11T04:54:08.650Z,13.56
2018-04-11T04:56:36.738Z,13.77
2018-04-11T04:59:04.823Z,13.74
2018-04-11T05:01:32.994Z,13.75
2018-04-11T05:04:01.330Z,13.76
2018-04-11T05:06:29.408Z,13.75
2018-04-11T05:08:57.497Z,13.90
2018-04-11T05:11:25.594Z,13.96
2018-04-11T05:13:53.690Z,14.00
2018-04-11T05:16:21.798Z,14.01
2018-04-11T05:18:50.796Z,14.17
2018-04-11T05:21:18.907Z,14.19
2018-04-11T05:23:47.027Z,14.35
2018-04-11T05:26:15.111Z,14.35
2018-04-11T05:28:44.162Z,14.35
2018-04-11T05:31:12.929Z,14.40
2018-04-11T05:33:41.020Z,14.35
2018-04-11T05:36:09.192Z,14.36
2018-04-11T05:38:37.309Z,14.24
2018-04-11T05:41:10.347Z,14.36
2018-04-11T05:43:38.464Z,14.38
2018-04-11T05:46:07.483Z,14.42
2018-04-11T05:48:35.599Z,14.31
2018-04-11T05:51:03.847Z,14.24
2018-04-11T05:53:31.927Z,14.31
2018-04-11T05:56:04.612Z,14.38
2018-04-11T05:58:33.423Z,14.47
2018-04-11T06:01:01.550Z,14.56
2018-04-11T06:03:29.645Z,14.55
2018-04-11T06:05:57.811Z,14.57
2018-04-11T06:08:25.918Z,14.55
2018-04-11T06:10:54.016Z,14.44
2018-04-11T06:13:22.224Z,14.37
2018-04-11T06:15:50.314Z,14.24
2018-04-11T06:18:18.417Z,14.18
2018-04-11T06:20:46.503Z,14.12
2018-04-11T06:23:15.352Z,14.11
2018-04-11T06:25:43.450Z,14.14
2018-04-11T06:28:12.402Z,14.10
2018-04-11T06:30:40.451Z,14.15
2018-04-11T06:33:08.814Z,14.22
2018-04-11T06:35:37.163Z,14.17
2018-04-11T06:38:05.258Z,14.23
2018-04-11T06:40:33.351Z,14.34
2018-04-11T06:43:02.448Z,14.35
2018-04-11T06:45:30.538Z,14.45
2018-04-11T06:47:58.690Z,14.46
2018-04-11T06:50:26.763Z,14.38
2018-04-11T06:52:54.887Z,14.40
2018-04-11T06:55:23.807Z,14.38
2018-04-11T06:57:52.504Z,14.34
2018-04-11T07:00:20.619Z,14.27
2018-04-11T07:02:48.715Z,14.39
2018-04-11T07:05:16.801Z,14.52
2018-04-11T07:07:44.928Z,14.54
2018-04-11T07:10:13.743Z,14.66
2018-04-11T07:12:41.836Z,14.65
2018-04-11T07:15:09.942Z,14.74
2018-04-11T07:17:38.697Z,14.64
2018-04-11T07:20:06.823Z,14.66
2018-04-11T07:22:34.923Z,14.70
2018-04-11T07:25:03.013Z,14.82
2018-04-11T07:27:31.840Z,14.76
2018-04-11T07:29:59.935Z,14.77
2018-04-11T07:32:28.819Z,14.82
2018-04-11T07:34:56.906Z,14.84
2018-04-11T07:37:25.021Z,14.87
2018-04-11T07:39:53.127Z,15.03
2018-04-11T07:42:21.242Z,15.18
2018-04-11T07:44:49.362Z,15.27
2018-04-11T07:47:17.907Z,15.24
2018-04-11T07:49:46.001Z,15.09
2018-04-11T07:52:14.123Z,14.92
2018-04-11T07:54:42.218Z,14.78
2018-04-11T07:57:10.316Z,14.78
2018-04-11T07:59:38.443Z,14.79
2018-04-11T08:02:06.555Z,14.78
2018-04-11T08:04:34.703Z,14.74
2018-04-11T08:07:03.448Z,14.71
2018-04-11T08:09:31.542Z,14.87
2018-04-11T08:11:59.641Z,14.92
2018-04-11T08:14:27.760Z,14.76
2018-04-11T08:16:56.171Z,14.74
2018-04-11T08:32:24.622Z,14.67
2018-04-11T08:34:53.436Z,14.74
2018-04-11T08:37:21.854Z,14.86
2018-04-11T08:39:49.963Z,14.90
2018-04-11T08:42:18.778Z,15.09
2018-04-11T08:44:48.074Z,15.17
2018-04-11T08:47:16.531Z,15.24
2018-04-11T08:49:44.635Z,15.30
2018-04-11T08:52:12.777Z,15.37
2018-04-11T08:54:41.208Z,15.33
2018-04-11T08:57:09.323Z,15.39
2018-04-11T08:59:37.436Z,15.46
2018-04-11T09:02:05.583Z,15.61
2018-04-11T09:04:33.756Z,15.60
2018-04-11T09:07:01.884Z,15.43
2018-04-11T09:09:29.974Z,15.57
2018-04-11T09:11:58.357Z,15.64
2018-04-11T09:14:26.477Z,15.66
2018-04-11T09:16:54.604Z,15.59
2018-04-11T09:19:22.688Z,15.68
2018-04-11T09:21:51.607Z,15.53
2018-04-11T09:24:20.046Z,15.44
2018-04-11T09:26:48.566Z,15.42
2018-04-11T09:29:16.816Z,15.22
2018-04-11T09:31:44.900Z,15.30
2018-04-11T09:34:13.262Z,15.27
2018-04-11T09:36:41.343Z,15.18
2018-04-11T09:39:09.434Z,15.35
2018-04-11T09:41:37.532Z,15.29
2018-04-11T09:44:05.646Z,15.24
2018-04-11T09:46:34.465Z,15.27
2018-04-11T09:49:02.566Z,15.30
2018-04-11T09:51:30.778Z,15.33
2018-04-11T09:53:58.861Z,15.19
2018-04-11T09:56:27.967Z,15.15
2018-04-11T09:58:56.585Z,15.23
2018-04-11T10:01:24.675Z,14.99
2018-04-11T10:03:52.807Z,14.86
2018-04-11T10:06:20.903Z,14.95
2018-04-11T10:08:49.858Z,14.90
2018-04-11T10:11:17.938Z,14.81
2018-04-11T10:13:47.870Z,14.76
2018-04-11T10:16:16.273Z,14.72
2018-04-11T10:18:45.017Z,14.68
2018-04-11T10:21:13.115Z,14.78
2018-04-11T10:23:41.214Z,14.72
2018-04-11T10:26:10.298Z,14.65
2018-04-11T10:28:38.409Z,14.63
2018-04-11T10:31:06.507Z,14.70
2018-04-11T10:33:35.248Z,14.64
2018-04-11T10:36:03.363Z,14.67
2018-04-11T10:38:31.511Z,14.68
2018-04-11T10:40:59.603Z,14.68
2018-04-11T10:43:27.720Z,14.76
2018-04-11T10:45:55.818Z,14.70
2018-04-11T10:48:23.915Z,14.72
2018-04-11T10:50:52.674Z,14.68
2018-04-11T10:53:21.541Z,14.64
2018-04-11T10:55:50.521Z,14.60
2018-04-11T10:58:18.649Z,14.60
2018-04-11T11:00:51.747Z,14.52
2018-04-11T11:03:19.848Z,14.57
2018-04-11T11:05:48.851Z,14.52
2018-04-11T11:08:17.732Z,14.56
2018-04-11T11:10:45.862Z,14.53
2018-04-11T11:13:13.953Z,14.50
2018-04-11T11:15:42.070Z,14.54
2018-04-11T11:18:10.180Z,14.55
2018-04-11T11:20:38.319Z,14.51
2018-04-11T11:23:06.405Z,14.58
2018-04-11T11:25:34.499Z,14.48
2018-04-11T11:28:02.596Z,14.39
2018-04-11T11:30:30.727Z,14.35
2018-04-11T11:32:59.592Z,14.37
2018-04-11T11:35:27.734Z,14.42
2018-04-11T11:37:55.847Z,14.50
2018-04-11T11:40:23.945Z,14.56
2018-04-11T11:42:52.040Z,14.56
2018-04-11T11:45:20.159Z,14.54
2018-04-11T11:47:48.621Z,14.60
2018-04-11T11:50:16.690Z,14.56
2018-04-11T11:52:44.808Z,14.60
2018-04-11T11:55:12.896Z,14.52
2018-04-11T11:57:40.995Z,14.53
2018-04-11T12:00:09.879Z,14.54
2018-04-11T12:02:37.975Z,14.60
2018-04-11T12:05:06.282Z,14.67
2018-04-11T12:07:34.359Z,14.67
2018-04-11T12:10:02.485Z,14.64
2018-04-11T12:12:30.584Z,14.60
2018-04-11T12:14:58.739Z,14.56
2018-04-11T12:17:26.823Z,14.61
2018-04-11T12:19:54.932Z,14.61
2018-04-11T12:22:23.058Z,14.40
2018-04-11T12:24:51.771Z,14.39
2018-04-11T12:27:20.155Z,14.52
2018-04-11T12:29:48.265Z,14.44
2018-04-11T12:32:16.356Z,14.46
2018-04-11T12:34:45.215Z,14.60
2018-04-11T12:37:13.296Z,14.61
2018-04-11T12:39:41.383Z,14.69
2018-04-11T12:42:09.543Z,14.72
2018-04-11T12:44:37.652Z,14.67
2018-04-11T12:47:05.743Z,14.53
2018-04-11T12:49:35.097Z,14.49
2018-04-11T12:52:03.195Z,14.56
2018-04-11T12:54:31.743Z,14.53
2018-04-11T12:57:00.072Z,14.54
2018-04-11T12:59:28.167Z,14.56
2018-04-11T13:01:56.271Z,14.65
2018-04-11T13:04:25.707Z,14.70
2018-04-11T13:06:53.831Z,14.74
2018-04-11T13:09:22.539Z,14.62
2018-04-11T13:21:35.644Z,14.87
2018-04-11T13:24:03.780Z,14.84
2018-04-11T13:26:31.928Z,14.80
2018-04-11T13:29:00.023Z,14.84
2018-04-11T13:31:28.477Z,14.97
2018-04-11T13:33:57.385Z,14.97
2018-04-11T13:36:25.731Z,15.03
2018-04-11T13:38:54.659Z,15.09
2018-04-11T13:41:22.752Z,15.13
2018-04-11T13:43:51.762Z,15.27
2018-04-11T13:46:20.623Z,15.26
2018-04-11T13:48:53.650Z,15.33
2018-04-11T13:51:21.759Z,15.28
2018-04-11T13:53:50.195Z,15.37
2018-04-11T13:56:18.659Z,15.35
2018-04-11T13:58:46.771Z,15.32
2018-04-11T14:01:14.895Z,15.42
2018-04-11T14:03:42.984Z,15.46
2018-04-11T14:06:11.110Z,15.45
2018-04-11T14:08:39.728Z,15.48
2018-04-11T14:11:07.811Z,15.41
2018-04-11T14:13:37.054Z,15.48
2018-04-11T14:16:05.167Z,15.48
2018-04-11T14:18:33.299Z,15.34
2018-04-11T14:21:01.368Z,15.30
2018-04-11T14:23:29.540Z,15.28
2018-04-11T14:25:57.603Z,15.32
2018-04-11T14:28:26.643Z,15.34
2018-04-11T14:30:54.791Z,15.40
2018-04-11T14:33:22.887Z,15.49
2018-04-11T14:45:36.009Z,15.51
2018-04-11T14:48:04.617Z,15.60
2018-04-11T14:50:32.729Z,15.61
2018-04-11T14:53:00.839Z,15.59
2018-04-11T14:55:29.669Z,15.68
2018-04-11T14:57:57.764Z,15.74
2018-04-11T15:00:25.891Z,15.76
2018-04-11T15:02:58.911Z,15.78
2018-04-11T15:05:27.100Z,15.79
2018-04-11T15:07:55.203Z,15.85
2018-04-11T15:10:23.303Z,15.80
2018-04-11T15:12:52.139Z,15.90
2018-04-11T15:15:20.236Z,15.98
2018-04-11T15:17:49.123Z,16.04
2018-04-11T15:20:17.238Z,16.06
2018-04-11T15:22:45.335Z,16.11
2018-04-11T15:25:13.455Z,15.99
2018-04-11T15:27:41.594Z,16.03
2018-04-11T15:30:09.655Z,16.02
2018-04-11T15:32:37.775Z,16.09
2018-04-11T15:35:05.863Z,16.08
2018-04-11T15:37:33.943Z,16.12
2018-04-11T15:40:02.060Z,16.14
2018-04-11T15:55:30.202Z,16.10
2018-04-11T15:57:58.292Z,16.13
2018-04-11T16:00:26.388Z,16.20
2018-04-11T16:02:54.865Z,16.22
2018-04-11T16:05:22.949Z,16.20
2018-04-11T16:07:51.935Z,16.29
2018-04-11T16:10:20.032Z,16.31
2018-04-11T16:12:48.176Z,16.34
2018-04-11T16:15:16.293Z,16.32
2018-04-11T16:17:44.390Z,16.39
2018-04-11T16:20:12.492Z,16.35
2018-04-11T16:22:40.667Z,16.36
2018-04-11T16:25:08.770Z,16.36
2018-04-11T16:27:36.851Z,16.33
2018-04-11T16:30:05.236Z,16.34
2018-04-11T16:32:33.363Z,16.36
2018-04-11T16:35:02.425Z,16.28
2018-04-11T16:37:30.775Z,16.27
2018-04-11T16:39:58.900Z,16.30
2018-04-11T16:42:28.079Z,16.27
2018-04-11T16:44:56.173Z,16.23
2018-04-11T16:47:24.295Z,16.27
2018-04-11T16:49:52.381Z,16.26
2018-04-11T16:52:20.497Z,16.30
2018-04-11T16:54:48.576Z,16.31
2018-04-11T16:57:17.164Z,16.30
2018-04-11T16:59:45.292Z,16.35
2018-04-11T17:02:13.434Z,16.36
2018-04-11T17:04:41.589Z,16.38
2018-04-11T17:07:09.704Z,16.37
2018-04-11T17:09:37.808Z,16.38
2018-04-11T17:12:05.903Z,16.36
2018-04-11T17:14:34.023Z,16.36
2018-04-11T17:17:02.155Z,16.41
2018-04-11T17:19:30.218Z,16.41
2018-04-11T17:22:10.017Z,16.38
2018-04-11T17:24:49.937Z,16.38
2018-04-11T17:27:29.821Z,16.34
2018-04-11T17:30:09.759Z,16.32
2018-04-11T17:32:38.651Z,16.26
2018-04-11T17:35:07.771Z,16.24
2018-04-11T17:37:35.940Z,16.23
2018-04-11T17:40:04.744Z,16.24
2018-04-11T17:42:32.844Z,16.23
2018-04-11T17:45:00.951Z,16.24
2018-04-11T17:47:29.078Z,16.29
2018-04-11T17:49:57.167Z,16.28
2018-04-11T17:52:25.266Z,16.27
2018-04-11T17:54:53.367Z,16.22
2018-04-11T18:07:06.463Z,16.08
2018-04-11T18:09:34.564Z,15.97
2018-04-11T18:12:02.671Z,15.96
2018-04-11T18:14:30.770Z,15.94
2018-04-11T18:16:59.504Z,15.96
2018-04-11T18:19:28.536Z,15.98
2018-04-11T18:21:56.664Z,15.90
2018-04-11T18:24:24.760Z,15.93
2018-04-11T18:26:53.616Z,15.93
2018-04-11T18:29:21.729Z,15.94
2018-04-11T18:31:49.821Z,15.98
2018-04-11T18:34:19.192Z,16.01
2018-04-11T18:36:47.283Z,16.01
2018-04-11T18:39:16.048Z,16.00
2018-04-11T18:41:44.159Z,15.95
2018-04-11T18:44:12.540Z,15.89
2018-04-11T18:46:41.559Z,15.82
2018-04-11T18:49:09.671Z,15.79
2018-04-11T18:51:37.759Z,15.82
2018-04-11T18:54:05.879Z,15.80
2018-04-11T18:56:33.979Z,15.75
2018-04-11T18:59:02.067Z,15.77
2018-04-11T19:01:30.664Z,15.83
2018-04-11T19:04:02.447Z,15.76
2018-04-11T19:06:31.476Z,15.76
2018-04-11T19:21:59.636Z,15.56
2018-04-11T19:24:27.846Z,15.57
2018-04-11T19:26:55.936Z,15.59
2018-04-11T19:29:25.314Z,15.57
2018-04-11T19:31:54.737Z,15.56
2018-04-11T19:34:23.845Z,15.57
2018-04-11T19:36:56.879Z,15.56
2018-04-11T19:39:25.301Z,15.55
2018-04-11T19:41:53.443Z,15.62
2018-04-11T19:44:21.601Z,15.62
2018-04-11T19:46:50.003Z,15.67
2018-04-11T19:49:18.201Z,15.63
2018-04-11T19:51:46.321Z,15.56
2018-04-11T19:54:15.199Z,15.53
2018-04-11T19:56:43.660Z,15.57
2018-04-11T19:59:12.632Z,15.58
2018-04-11T20:01:40.738Z,15.60
2018-04-11T20:04:08.848Z,15.67
2018-04-11T20:06:36.958Z,15.62
2018-04-11T20:22:05.075Z,15.57
2018-04-11T20:24:33.436Z,15.57
2018-04-11T20:27:01.533Z,15.57
2018-04-11T20:29:30.448Z,15.51
2018-04-11T20:31:58.705Z,15.55
2018-04-11T20:34:27.801Z,15.60
2018-04-11T20:36:55.910Z,15.59
2018-04-11T20:39:24.331Z,15.62
2018-04-11T20:41:52.429Z,15.67
2018-04-11T20:44:21.429Z,15.58
2018-04-11T20:46:49.603Z,15.58
2018-04-11T20:49:18.735Z,15.65
2018-04-11T20:51:47.334Z,15.59
2018-04-11T20:54:15.438Z,15.61
2018-04-11T20:56:43.579Z,15.51
2018-04-11T20:59:11.658Z,15.49
2018-04-11T21:01:40.098Z,15.54
2018-04-11T21:04:08.292Z,15.49
2018-04-11T21:06:36.752Z,15.46
2018-04-11T21:09:06.526Z,15.55
2018-04-11T21:11:35.292Z,15.32
2018-04-11T21:14:04.092Z,15.23
2018-04-11T21:16:32.622Z,15.26
2018-04-11T21:19:00.726Z,15.20
2018-04-11T21:21:28.827Z,15.19
2018-04-11T21:23:56.921Z,15.19
2018-04-11T21:26:25.056Z,15.23
2018-04-11T21:28:53.165Z,15.19
2018-04-11T21:31:21.818Z,15.13
2018-04-11T21:33:49.942Z,15.06
2018-04-11T21:36:18.972Z,15.07
2018-04-11T21:38:47.712Z,15.22
2018-04-11T21:41:16.203Z,15.16
2018-04-11T21:43:44.268Z,15.13
2018-04-11T21:46:12.698Z,15.20
2018-04-11T21:48:40.773Z,15.12
2018-04-11T21:51:08.895Z,15.13
2018-04-11T21:53:37.829Z,15.18
2018-04-11T21:56:06.219Z,15.11
2018-04-11T21:58:34.328Z,15.18
2018-04-11T22:01:02.435Z,15.09
2018-04-11T22:03:31.442Z,15.10
2018-04-11T22:05:59.525Z,15.14
2018-04-11T22:08:28.380Z,15.08
2018-04-11T22:10:57.395Z,15.09
2018-04-11T22:13:25.499Z,15.09
2018-04-11T22:15:58.574Z,14.90
2018-04-11T22:18:27.163Z,14.96
2018-04-11T22:20:55.259Z,14.92
2018-04-11T22:23:23.369Z,14.95
2018-04-11T22:28:28.593Z,15.00
2018-04-11T22:30:56.719Z,15.01
2018-04-11T22:33:24.806Z,14.99
2018-04-11T22:35:52.934Z,14.95
2018-04-11T22:51:22.049Z,14.81
2018-04-11T22:53:50.167Z,14.73
2018-04-11T22:56:18.277Z,14.81
2018-04-11T22:58:46.391Z,14.79
2018-04-11T23:01:14.486Z,14.78
2018-04-11T23:03:42.655Z,14.78
2018-04-11T23:06:11.303Z,14.80
2018-04-11T23:08:40.295Z,14.87
2018-04-11T23:11:09.298Z,14.77
2018-04-11T23:13:37.527Z,14.78
2018-04-11T23:16:05.624Z,14.79
2018-04-11T23:18:33.843Z,14.77
2018-04-11T23:21:01.941Z,14.82
2018-04-11T23:23:30.031Z,14.62
2018-04-11T23:25:58.144Z,14.70
2018-04-11T23:28:27.104Z,14.75
2018-04-11T23:30:55.532Z,14.66
2018-04-11T23:33:23.657Z,14.65
2018-04-11T23:35:51.976Z,14.59
2018-04-11T23:38:21.136Z,14.60
2018-04-11T23:40:49.312Z,14.67
2018-04-11T23:43:17.411Z,14.47
2018-04-11T23:45:45.521Z,14.45
2018-04-11T23:48:14.651Z,14.51
2018-04-11T23:50:42.748Z,14.46
2018-04-11T23:53:11.970Z,14.45
2018-04-11T23:55:40.046Z,14.35
2018-04-11T23:58:08.914Z,14.36
